sensor_id;sensor_type;location;lat;lon;timestamp;pressure;altitude;pressure_sealevel;temperature;humidity
45071;BME280;30836;48.906;9.140;2023-02-18T00:00:29;995.43;;;16.71;50.85
45071;BME280;30836;48.906;9.140;2023-02-18T00:01:30;995.39;;;16.71;51.05
45071;BME280;30836;48.906;9.140;2023-02-18T00:02:31;995.41;;;16.67;51.09
45071;BME280;30836;48.906;9.140;2023-02-18T00:03:32;995.43;;;16.65;51.19
45071;BME280;30836;48.906;9.140;2023-02-18T00:04:32;995.41;;;16.64;50.94
45071;BME280;30836;48.906;9.140;2023-02-18T00:05:33;995.39;;;16.63;50.96
45071;BME280;30836;48.906;9.140;2023-02-18T00:06:34;995.35;;;16.63;51.18
45071;BME280;30836;48.906;9.140;2023-02-18T00:07:35;995.33;;;16.64;50.99
45071;BME280;30836;48.906;9.140;2023-02-18T00:08:37;995.41;;;16.73;50.60
45071;BME280;30836;48.906;9.140;2023-02-18T00:09:38;995.35;;;16.81;50.51
45071;BME280;30836;48.906;9.140;2023-02-18T00:10:39;995.41;;;16.84;50.47
45071;BME280;30836;48.906;9.140;2023-02-18T00:11:40;995.41;;;16.80;50.94
45071;BME280;30836;48.906;9.140;2023-02-18T00:12:41;995.45;;;16.69;51.06
45071;BME280;30836;48.906;9.140;2023-02-18T00:13:42;995.37;;;16.63;51.14
45071;BME280;30836;48.906;9.140;2023-02-18T00:14:42;995.41;;;16.61;51.01
45071;BME280;30836;48.906;9.140;2023-02-18T00:15:43;995.39;;;16.67;50.77
45071;BME280;30836;48.906;9.140;2023-02-18T00:16:44;995.37;;;16.72;50.71
45071;BME280;30836;48.906;9.140;2023-02-18T00:16:54;995.43;;;16.72;50.71
45071;BME280;30836;48.906;9.140;2023-02-18T00:17:55;995.41;;;16.75;50.70
45071;BME280;30836;48.906;9.140;2023-02-18T00:18:56;995.45;;;16.79;50.47
45071;BME280;30836;48.906;9.140;2023-02-18T00:19:57;995.49;;;16.80;50.56
45071;BME280;30836;48.906;9.140;2023-02-18T00:20:58;995.41;;;16.78;50.69
45071;BME280;30836;48.906;9.140;2023-02-18T00:21:58;995.41;;;16.79;50.66
45071;BME280;30836;48.906;9.140;2023-02-18T00:22:59;995.37;;;16.74;50.75
45071;BME280;30836;48.906;9.140;2023-02-18T00:23:59;995.37;;;16.63;51.10
45071;BME280;30836;48.906;9.140;2023-02-18T00:25:00;995.39;;;16.60;50.95
45071;BME280;30836;48.906;9.140;2023-02-18T00:26:01;995.35;;;16.65;50.66
45071;BME280;30836;48.906;9.140;2023-02-18T00:27:03;995.39;;;16.72;50.47
45071;BME280;30836;48.906;9.140;2023-02-18T00:28:04;995.33;;;16.78;50.25
45071;BME280;30836;48.906;9.140;2023-02-18T00:29:04;995.33;;;16.86;50.15
45071;BME280;30836;48.906;9.140;2023-02-18T00:30:05;995.37;;;16.90;50.31
45071;BME280;30836;48.906;9.140;2023-02-18T00:31:10;995.35;;;16.92;50.03
45071;BME280;30836;48.906;9.140;2023-02-18T00:32:12;995.33;;;16.98;49.78
45071;BME280;30836;48.906;9.140;2023-02-18T00:33:13;995.27;;;17.00;50.09
45071;BME280;30836;48.906;9.140;2023-02-18T00:34:13;995.23;;;16.95;50.04
45071;BME280;30836;48.906;9.140;2023-02-18T00:35:14;995.23;;;16.85;50.52
45071;BME280;30836;48.906;9.140;2023-02-18T00:36:15;995.17;;;16.75;50.57
45071;BME280;30836;48.906;9.140;2023-02-18T00:37:17;995.13;;;16.80;50.02
45071;BME280;30836;48.906;9.140;2023-02-18T00:38:18;995.13;;;16.95;49.41
45071;BME280;30836;48.906;9.140;2023-02-18T00:39:18;995.11;;;17.04;49.68
45071;BME280;30836;48.906;9.140;2023-02-18T00:40:19;995.11;;;17.08;49.27
45071;BME280;30836;48.906;9.140;2023-02-18T00:41:20;995.15;;;17.15;49.22
45071;BME280;30836;48.906;9.140;2023-02-18T00:42:22;995.07;;;17.18;49.12
45071;BME280;30836;48.906;9.140;2023-02-18T00:43:22;995.06;;;17.18;49.28
45071;BME280;30836;48.906;9.140;2023-02-18T00:43:32;995.06;;;17.19;49.24
45071;BME280;30836;48.906;9.140;2023-02-18T00:43:42;995.07;;;17.22;49.16
45071;BME280;30836;48.906;9.140;2023-02-18T00:44:43;995.09;;;17.25;48.78
45071;BME280;30836;48.906;9.140;2023-02-18T00:45:43;995.11;;;17.29;48.81
45071;BME280;30836;48.906;9.140;2023-02-18T00:46:43;995.11;;;17.34;48.75
45071;BME280;30836;48.906;9.140;2023-02-18T00:47:44;995.11;;;17.39;48.41
45071;BME280;30836;48.906;9.140;2023-02-18T00:48:44;995.15;;;17.43;48.42
45071;BME280;30836;48.906;9.140;2023-02-18T00:49:45;995.15;;;17.37;48.92
45071;BME280;30836;48.906;9.140;2023-02-18T00:50:46;995.09;;;17.29;48.95
45071;BME280;30836;48.906;9.140;2023-02-18T00:51:46;995.09;;;17.36;48.47
45071;BME280;30836;48.906;9.140;2023-02-18T00:52:46;995.15;;;17.40;48.60
45071;BME280;30836;48.906;9.140;2023-02-18T00:53:47;995.11;;;17.31;49.04
45071;BME280;30836;48.906;9.140;2023-02-18T00:54:48;995.09;;;17.23;49.08
45071;BME280;30836;48.906;9.140;2023-02-18T00:55:49;995.06;;;17.24;48.71
45071;BME280;30836;48.906;9.140;2023-02-18T00:56:49;995.15;;;17.26;48.80
45071;BME280;30836;48.906;9.140;2023-02-18T00:57:50;995.13;;;17.25;48.83
45071;BME280;30836;48.906;9.140;2023-02-18T00:58:50;995.07;;;17.28;48.62
45071;BME280;30836;48.906;9.140;2023-02-18T00:59:51;995.07;;;17.30;48.86
45071;BME280;30836;48.906;9.140;2023-02-18T01:00:51;995.09;;;17.28;48.71
45071;BME280;30836;48.906;9.140;2023-02-18T01:01:52;995.19;;;17.29;48.81
45071;BME280;30836;48.906;9.140;2023-02-18T01:02:53;995.19;;;17.20;49.41
45071;BME280;30836;48.906;9.140;2023-02-18T01:03:53;995.21;;;17.07;49.48
45071;BME280;30836;48.906;9.140;2023-02-18T01:04:54;995.21;;;17.06;49.16
45071;BME280;30836;48.906;9.140;2023-02-18T01:05:55;995.23;;;17.11;49.11
45071;BME280;30836;48.906;9.140;2023-02-18T01:06:55;995.17;;;17.11;49.27
45071;BME280;30836;48.906;9.140;2023-02-18T01:07:56;995.09;;;17.19;48.69
45071;BME280;30836;48.906;9.140;2023-02-18T01:08:56;995.15;;;17.29;48.60
45071;BME280;30836;48.906;9.140;2023-02-18T01:09:56;995.11;;;17.29;48.79
45071;BME280;30836;48.906;9.140;2023-02-18T01:10:57;995.11;;;17.25;48.93
45071;BME280;30836;48.906;9.140;2023-02-18T01:11:58;995.13;;;17.19;49.10
45071;BME280;30836;48.906;9.140;2023-02-18T01:12:59;995.06;;;17.12;49.13
45071;BME280;30836;48.906;9.140;2023-02-18T01:14:00;995.07;;;17.03;49.55
45071;BME280;30836;48.906;9.140;2023-02-18T01:15:00;995.06;;;16.99;49.36
45071;BME280;30836;48.906;9.140;2023-02-18T01:16:01;995.09;;;17.04;49.00
45071;BME280;30836;48.906;9.140;2023-02-18T01:17:02;995.09;;;17.04;49.25
45071;BME280;30836;48.906;9.140;2023-02-18T01:18:02;995.07;;;16.90;49.92
45071;BME280;30836;48.906;9.140;2023-02-18T01:19:03;995.06;;;16.66;50.46
45071;BME280;30836;48.906;9.140;2023-02-18T01:20:04;995.09;;;16.55;50.42
45071;BME280;30836;48.906;9.140;2023-02-18T01:21:06;995.04;;;16.58;50.02
45071;BME280;30836;48.906;9.140;2023-02-18T01:22:07;995.04;;;16.66;49.86
45071;BME280;30836;48.906;9.140;2023-02-18T01:23:07;995.27;;;16.74;49.64
45071;BME280;30836;48.906;9.140;2023-02-18T01:24:08;995.07;;;16.69;50.41
45071;BME280;30836;48.906;9.140;2023-02-18T01:25:09;995.02;;;16.53;50.57
45071;BME280;30836;48.906;9.140;2023-02-18T01:26:11;995.00;;;16.49;50.33
45071;BME280;30836;48.906;9.140;2023-02-18T01:27:11;994.89;;;16.52;50.24
45071;BME280;30836;48.906;9.140;2023-02-18T01:28:12;995.00;;;16.60;49.81
45071;BME280;30836;48.906;9.140;2023-02-18T01:29:13;994.89;;;16.63;50.04
45071;BME280;30836;48.906;9.140;2023-02-18T01:30:15;994.89;;;16.66;49.69
45071;BME280;30836;48.906;9.140;2023-02-18T01:31:16;994.91;;;16.76;49.23
45071;BME280;30836;48.906;9.140;2023-02-18T01:32:16;994.83;;;16.85;49.37
45071;BME280;30836;48.906;9.140;2023-02-18T01:33:17;994.89;;;16.88;49.19
45071;BME280;30836;48.906;9.140;2023-02-18T01:34:18;994.91;;;16.91;49.02
45071;BME280;30836;48.906;9.140;2023-02-18T01:35:19;995.06;;;16.94;49.04
45071;BME280;30836;48.906;9.140;2023-02-18T01:36:19;994.91;;;16.97;48.99
45071;BME280;30836;48.906;9.140;2023-02-18T01:36:30;994.87;;;16.98;48.97
45071;BME280;30836;48.906;9.140;2023-02-18T01:37:30;994.87;;;17.04;48.63
45071;BME280;30836;48.906;9.140;2023-02-18T01:38:30;994.87;;;17.07;48.92
45071;BME280;30836;48.906;9.140;2023-02-18T01:39:31;994.85;;;17.00;48.97
45071;BME280;30836;48.906;9.140;2023-02-18T01:40:31;994.89;;;16.95;49.09
45071;BME280;30836;48.906;9.140;2023-02-18T01:41:32;994.87;;;16.91;49.36
45071;BME280;30836;48.906;9.140;2023-02-18T01:42:33;994.83;;;16.89;49.16
45071;BME280;30836;48.906;9.140;2023-02-18T01:43:34;994.81;;;16.86;49.31
45071;BME280;30836;48.906;9.140;2023-02-18T01:44:35;994.81;;;16.81;49.42
45071;BME280;30836;48.906;9.140;2023-02-18T01:45:39;994.83;;;16.86;49.04
45071;BME280;30836;48.906;9.140;2023-02-18T01:46:43;994.79;;;17.00;48.52
45071;BME280;30836;48.906;9.140;2023-02-18T01:47:44;994.87;;;17.14;48.18
45071;BME280;30836;48.906;9.140;2023-02-18T01:49:52;994.89;;;17.08;48.73
45071;BME280;30836;48.906;9.140;2023-02-18T01:50:56;994.85;;;17.00;48.92
45071;BME280;30836;48.906;9.140;2023-02-18T01:53:13;994.91;;;17.05;48.63
45071;BME280;30836;48.906;9.140;2023-02-18T01:55:26;994.85;;;17.12;48.35
45071;BME280;30836;48.906;9.140;2023-02-18T01:57:36;994.87;;;17.23;47.83
45071;BME280;30836;48.906;9.140;2023-02-18T01:58:37;994.87;;;17.34;47.83
45071;BME280;30836;48.906;9.140;2023-02-18T01:59:43;994.85;;;17.36;47.61
45071;BME280;30836;48.906;9.140;2023-02-18T02:00:47;994.85;;;17.50;47.03
45071;BME280;30836;48.906;9.140;2023-02-18T02:01:48;994.85;;;17.75;46.44
45071;BME280;30836;48.906;9.140;2023-02-18T02:02:50;994.83;;;17.94;46.15
45071;BME280;30836;48.906;9.140;2023-02-18T02:03:51;994.83;;;18.04;46.13
45071;BME280;30836;48.906;9.140;2023-02-18T02:04:52;994.77;;;18.17;45.68
45071;BME280;30836;48.906;9.140;2023-02-18T02:05:53;994.81;;;18.23;45.70
45071;BME280;30836;48.906;9.140;2023-02-18T02:06:54;994.85;;;18.23;45.88
45071;BME280;30836;48.906;9.140;2023-02-18T02:07:54;994.87;;;18.26;45.52
45071;BME280;30836;48.906;9.140;2023-02-18T02:08:56;994.85;;;18.33;45.34
45071;BME280;30836;48.906;9.140;2023-02-18T02:10:01;994.87;;;18.35;45.47
45071;BME280;30836;48.906;9.140;2023-02-18T02:12:11;994.85;;;18.27;45.80
45071;BME280;30836;48.906;9.140;2023-02-18T02:13:21;994.89;;;18.30;45.28
45071;BME280;30836;48.906;9.140;2023-02-18T02:16:50;994.81;;;17.94;46.78
45071;BME280;30836;48.906;9.140;2023-02-18T02:27:20;994.58;;;17.74;46.78
45071;BME280;30836;48.906;9.140;2023-02-18T02:34:24;994.62;;;17.38;47.73
45071;BME280;30836;48.906;9.140;2023-02-18T02:35:23;994.56;;;17.43;47.94
45071;BME280;30836;48.906;9.140;2023-02-18T02:38:58;994.56;;;17.01;49.12
45071;BME280;30836;48.906;9.140;2023-02-18T02:40:18;994.56;;;16.95;48.88
45071;BME280;30836;48.906;9.140;2023-02-18T02:41:20;994.48;;;17.00;48.82
45071;BME280;30836;48.906;9.140;2023-02-18T02:46:43;994.42;;;17.41;47.89
45071;BME280;30836;48.906;9.140;2023-02-18T02:49:05;994.42;;;17.47;47.79
45071;BME280;30836;48.906;9.140;2023-02-18T02:50:12;994.56;;;17.49;47.70
45071;BME280;30836;48.906;9.140;2023-02-18T02:52:30;994.46;;;17.50;48.01
45071;BME280;30836;48.906;9.140;2023-02-18T02:53:34;994.48;;;17.45;47.64
45071;BME280;30836;48.906;9.140;2023-02-18T02:54:36;994.58;;;17.47;47.59
45071;BME280;30836;48.906;9.140;2023-02-18T02:55:36;994.60;;;17.41;47.93
45071;BME280;30836;48.906;9.140;2023-02-18T02:56:37;994.62;;;17.36;47.82
45071;BME280;30836;48.906;9.140;2023-02-18T02:58:43;994.50;;;17.34;47.58
45071;BME280;30836;48.906;9.140;2023-02-18T02:59:48;994.66;;;17.30;47.69
45071;BME280;30836;48.906;9.140;2023-02-18T03:02:08;994.48;;;17.13;47.98
45071;BME280;30836;48.906;9.140;2023-02-18T03:06:42;994.36;;;17.30;47.44
45071;BME280;30836;48.906;9.140;2023-02-18T03:11:13;994.36;;;17.31;47.56
45071;BME280;30836;48.906;9.140;2023-02-18T03:15:48;994.36;;;16.99;47.83
45071;BME280;30836;48.906;9.140;2023-02-18T03:19:20;994.29;;;16.97;48.18
45071;BME280;30836;48.906;9.140;2023-02-18T03:22:39;994.23;;;16.94;47.90
45071;BME280;30836;48.906;9.140;2023-02-18T03:23:48;994.17;;;17.01;47.76
45071;BME280;30836;48.906;9.140;2023-02-18T03:24:56;994.21;;;17.09;47.60
45071;BME280;30836;48.906;9.140;2023-02-18T03:25:57;994.23;;;17.10;47.85
45071;BME280;30836;48.906;9.140;2023-02-18T03:28:08;994.23;;;17.15;47.52
45071;BME280;30836;48.906;9.140;2023-02-18T03:29:13;994.21;;;17.20;47.35
45071;BME280;30836;48.906;9.140;2023-02-18T03:30:21;994.19;;;17.20;47.56
45071;BME280;30836;48.906;9.140;2023-02-18T03:31:25;994.23;;;17.16;47.61
45071;BME280;30836;48.906;9.140;2023-02-18T03:32:28;994.17;;;17.17;47.70
45071;BME280;30836;48.906;9.140;2023-02-18T03:33:32;994.21;;;17.22;47.20
45071;BME280;30836;48.906;9.140;2023-02-18T03:34:41;994.21;;;17.25;47.71
45071;BME280;30836;48.906;9.140;2023-02-18T03:35:45;994.23;;;17.17;47.79
45071;BME280;30836;48.906;9.140;2023-02-18T03:36:47;994.21;;;17.10;48.00
45071;BME280;30836;48.906;9.140;2023-02-18T03:37:50;994.19;;;17.07;47.83
45071;BME280;30836;48.906;9.140;2023-02-18T03:38:58;994.40;;;17.10;47.58
45071;BME280;30836;48.906;9.140;2023-02-18T03:40:03;994.29;;;17.10;47.96
45071;BME280;30836;48.906;9.140;2023-02-18T03:41:05;994.25;;;17.06;47.97
45071;BME280;30836;48.906;9.140;2023-02-18T03:42:06;994.27;;;17.06;47.93
45071;BME280;30836;48.906;9.140;2023-02-18T03:43:07;994.25;;;16.95;48.87
45071;BME280;30836;48.906;9.140;2023-02-18T03:44:08;994.42;;;16.81;48.72
45071;BME280;30836;48.906;9.140;2023-02-18T03:45:09;994.38;;;16.83;48.54
45071;BME280;30836;48.906;9.140;2023-02-18T03:46:10;994.34;;;16.91;48.36
45071;BME280;30836;48.906;9.140;2023-02-18T03:47:11;994.30;;;17.01;48.10
45071;BME280;30836;48.906;9.140;2023-02-18T03:48:12;994.27;;;17.11;47.80
45071;BME280;30836;48.906;9.140;2023-02-18T03:49:13;994.32;;;17.17;47.82
45071;BME280;30836;48.906;9.140;2023-02-18T03:50:14;994.29;;;17.21;47.71
45071;BME280;30836;48.906;9.140;2023-02-18T03:51:15;994.30;;;17.27;47.73
45071;BME280;30836;48.906;9.140;2023-02-18T03:52:15;994.36;;;17.25;47.90
45071;BME280;30836;48.906;9.140;2023-02-18T03:53:15;994.29;;;17.15;48.49
45071;BME280;30836;48.906;9.140;2023-02-18T03:54:16;994.25;;;17.15;48.00
45071;BME280;30836;48.906;9.140;2023-02-18T03:55:16;994.23;;;17.22;47.88
45071;BME280;30836;48.906;9.140;2023-02-18T03:56:17;994.23;;;17.20;48.10
45071;BME280;30836;48.906;9.140;2023-02-18T03:57:18;994.27;;;17.20;47.95
45071;BME280;30836;48.906;9.140;2023-02-18T03:58:19;994.30;;;17.23;47.96
45071;BME280;30836;48.906;9.140;2023-02-18T03:59:19;994.29;;;17.26;47.88
45071;BME280;30836;48.906;9.140;2023-02-18T04:00:20;994.29;;;17.31;47.71
45071;BME280;30836;48.906;9.140;2023-02-18T04:01:20;994.29;;;17.35;47.63
45071;BME280;30836;48.906;9.140;2023-02-18T04:02:21;994.30;;;17.40;47.43
45071;BME280;30836;48.906;9.140;2023-02-18T04:03:22;994.25;;;17.41;47.47
45071;BME280;30836;48.906;9.140;2023-02-18T04:04:22;994.27;;;17.38;47.74
45071;BME280;30836;48.906;9.140;2023-02-18T04:05:23;994.19;;;17.26;48.41
45071;BME280;30836;48.906;9.140;2023-02-18T04:06:23;994.15;;;17.05;49.04
45071;BME280;30836;48.906;9.140;2023-02-18T04:07:24;994.13;;;16.89;48.98
45071;BME280;30836;48.906;9.140;2023-02-18T04:08:25;994.19;;;16.86;48.91
45071;BME280;30836;48.906;9.140;2023-02-18T04:09:25;994.11;;;16.84;48.97
45071;BME280;30836;48.906;9.140;2023-02-18T04:10:26;994.09;;;16.84;48.89
45071;BME280;30836;48.906;9.140;2023-02-18T04:11:26;994.17;;;16.83;48.98
45071;BME280;30836;48.906;9.140;2023-02-18T04:12:26;994.09;;;16.81;49.06
45071;BME280;30836;48.906;9.140;2023-02-18T04:13:27;994.07;;;16.74;49.44
45071;BME280;30836;48.906;9.140;2023-02-18T04:14:27;994.07;;;16.68;49.28
45071;BME280;30836;48.906;9.140;2023-02-18T04:15:28;994.01;;;16.65;49.53
45071;BME280;30836;48.906;9.140;2023-02-18T04:16:28;994.01;;;16.58;49.63
45071;BME280;30836;48.906;9.140;2023-02-18T04:17:29;993.99;;;16.55;49.50
45071;BME280;30836;48.906;9.140;2023-02-18T04:18:31;994.01;;;16.56;49.44
45071;BME280;30836;48.906;9.140;2023-02-18T04:19:31;994.01;;;16.59;49.28
45071;BME280;30836;48.906;9.140;2023-02-18T04:20:31;993.99;;;16.65;49.16
45071;BME280;30836;48.906;9.140;2023-02-18T04:21:32;994.07;;;16.65;49.26
45071;BME280;30836;48.906;9.140;2023-02-18T04:22:33;994.05;;;16.62;49.30
45071;BME280;30836;48.906;9.140;2023-02-18T04:23:33;994.05;;;16.58;49.44
45071;BME280;30836;48.906;9.140;2023-02-18T04:24:34;994.05;;;16.54;49.53
45071;BME280;30836;48.906;9.140;2023-02-18T04:25:34;994.09;;;16.50;49.48
45071;BME280;30836;48.906;9.140;2023-02-18T04:26:35;994.03;;;16.50;49.51
45071;BME280;30836;48.906;9.140;2023-02-18T04:27:35;994.01;;;16.47;49.61
45071;BME280;30836;48.906;9.140;2023-02-18T04:28:36;993.99;;;16.42;49.54
45071;BME280;30836;48.906;9.140;2023-02-18T04:29:36;994.01;;;16.37;49.82
45071;BME280;30836;48.906;9.140;2023-02-18T04:30:37;994.03;;;16.36;49.65
45071;BME280;30836;48.906;9.140;2023-02-18T04:31:37;994.05;;;16.43;49.31
45071;BME280;30836;48.906;9.140;2023-02-18T04:32:38;994.05;;;16.49;49.22
45071;BME280;30836;48.906;9.140;2023-02-18T04:33:38;994.07;;;16.54;49.20
45071;BME280;30836;48.906;9.140;2023-02-18T04:34:39;994.09;;;16.59;49.01
45071;BME280;30836;48.906;9.140;2023-02-18T04:35:39;994.09;;;16.64;48.78
45071;BME280;30836;48.906;9.140;2023-02-18T04:36:40;994.07;;;16.72;48.51
45071;BME280;30836;48.906;9.140;2023-02-18T04:37:40;994.11;;;16.84;48.18
45071;BME280;30836;48.906;9.140;2023-02-18T04:38:41;994.05;;;16.96;47.98
45071;BME280;30836;48.906;9.140;2023-02-18T04:39:41;994.05;;;17.05;47.78
45071;BME280;30836;48.906;9.140;2023-02-18T04:40:42;994.07;;;17.11;47.67
45071;BME280;30836;48.906;9.140;2023-02-18T04:41:42;994.07;;;17.21;47.42
45071;BME280;30836;48.906;9.140;2023-02-18T04:42:42;994.09;;;17.34;46.97
45071;BME280;30836;48.906;9.140;2023-02-18T04:43:43;994.13;;;17.46;46.82
45071;BME280;30836;48.906;9.140;2023-02-18T04:44:43;994.11;;;17.53;46.82
45071;BME280;30836;48.906;9.140;2023-02-18T04:45:44;994.11;;;17.58;46.53
45071;BME280;30836;48.906;9.140;2023-02-18T04:46:44;994.11;;;17.65;46.46
45071;BME280;30836;48.906;9.140;2023-02-18T04:47:45;994.11;;;17.69;46.39
45071;BME280;30836;48.906;9.140;2023-02-18T04:48:45;994.07;;;17.71;46.27
45071;BME280;30836;48.906;9.140;2023-02-18T04:49:45;994.11;;;17.74;46.22
45071;BME280;30836;48.906;9.140;2023-02-18T04:50:46;994.11;;;17.76;46.06
45071;BME280;30836;48.906;9.140;2023-02-18T04:51:46;994.13;;;17.68;46.51
45071;BME280;30836;48.906;9.140;2023-02-18T04:52:47;994.13;;;17.59;46.47
45071;BME280;30836;48.906;9.140;2023-02-18T04:53:48;994.15;;;17.56;46.64
45071;BME280;30836;48.906;9.140;2023-02-18T04:54:48;994.13;;;17.53;46.39
45071;BME280;30836;48.906;9.140;2023-02-18T04:55:49;994.11;;;17.51;46.43
45071;BME280;30836;48.906;9.140;2023-02-18T04:56:51;994.09;;;17.52;46.33
45071;BME280;30836;48.906;9.140;2023-02-18T04:57:51;994.11;;;17.60;46.09
45071;BME280;30836;48.906;9.140;2023-02-18T04:58:51;994.13;;;17.70;45.75
45071;BME280;30836;48.906;9.140;2023-02-18T04:59:52;994.13;;;17.78;45.51
45071;BME280;30836;48.906;9.140;2023-02-18T05:00:52;994.15;;;17.84;45.40
45071;BME280;30836;48.906;9.140;2023-02-18T05:01:53;994.15;;;17.83;45.42
45071;BME280;30836;48.906;9.140;2023-02-18T05:02:53;994.13;;;17.79;45.43
45071;BME280;30836;48.906;9.140;2023-02-18T05:03:54;994.11;;;17.79;45.30
45071;BME280;30836;48.906;9.140;2023-02-18T05:04:54;994.17;;;17.83;45.08
45071;BME280;30836;48.906;9.140;2023-02-18T05:05:55;994.15;;;17.91;44.92
45071;BME280;30836;48.906;9.140;2023-02-18T05:06:55;994.19;;;17.99;44.73
45071;BME280;30836;48.906;9.140;2023-02-18T05:07:56;994.13;;;18.07;44.45
45071;BME280;30836;48.906;9.140;2023-02-18T05:08:56;994.13;;;18.10;44.54
45071;BME280;30836;48.906;9.140;2023-02-18T05:09:57;994.15;;;18.12;44.41
45071;BME280;30836;48.906;9.140;2023-02-18T05:10:57;994.13;;;18.16;44.34
45071;BME280;30836;48.906;9.140;2023-02-18T05:11:57;994.17;;;18.18;44.25
45071;BME280;30836;48.906;9.140;2023-02-18T05:12:58;994.17;;;18.17;44.19
45071;BME280;30836;48.906;9.140;2023-02-18T05:13:58;994.17;;;18.20;44.08
45071;BME280;30836;48.906;9.140;2023-02-18T05:14:59;994.17;;;18.24;43.95
45071;BME280;30836;48.906;9.140;2023-02-18T05:15:59;994.15;;;18.30;43.78
45071;BME280;30836;48.906;9.140;2023-02-18T05:17:00;994.11;;;18.33;43.75
45071;BME280;30836;48.906;9.140;2023-02-18T05:18:00;994.13;;;18.33;43.70
45071;BME280;30836;48.906;9.140;2023-02-18T05:19:01;994.09;;;18.33;43.72
45071;BME280;30836;48.906;9.140;2023-02-18T05:20:02;994.05;;;18.35;43.64
45071;BME280;30836;48.906;9.140;2023-02-18T05:21:02;994.03;;;18.37;43.62
45071;BME280;30836;48.906;9.140;2023-02-18T05:22:03;994.09;;;18.31;43.83
45071;BME280;30836;48.906;9.140;2023-02-18T05:23:03;994.07;;;18.21;44.06
45071;BME280;30836;48.906;9.140;2023-02-18T05:24:04;994.07;;;18.17;43.95
45071;BME280;30836;48.906;9.140;2023-02-18T05:25:05;994.05;;;18.15;43.90
45071;BME280;30836;48.906;9.140;2023-02-18T05:26:06;994.05;;;18.06;44.20
45071;BME280;30836;48.906;9.140;2023-02-18T05:27:06;994.03;;;17.91;44.64
45071;BME280;30836;48.906;9.140;2023-02-18T05:28:07;993.99;;;17.84;44.37
45071;BME280;30836;48.906;9.140;2023-02-18T05:29:07;994.05;;;17.86;44.32
45071;BME280;30836;48.906;9.140;2023-02-18T05:30:08;993.97;;;17.86;44.34
45071;BME280;30836;48.906;9.140;2023-02-18T05:31:09;993.97;;;17.83;44.51
45071;BME280;30836;48.906;9.140;2023-02-18T05:32:09;993.95;;;17.81;44.46
45071;BME280;30836;48.906;9.140;2023-02-18T05:33:10;993.97;;;17.85;44.30
45071;BME280;30836;48.906;9.140;2023-02-18T05:34:10;993.95;;;17.87;44.33
45071;BME280;30836;48.906;9.140;2023-02-18T05:35:11;993.95;;;17.82;44.55
45071;BME280;30836;48.906;9.140;2023-02-18T05:36:11;993.93;;;17.79;44.49
45071;BME280;30836;48.906;9.140;2023-02-18T05:37:11;993.95;;;17.82;44.39
45071;BME280;30836;48.906;9.140;2023-02-18T05:38:12;993.93;;;17.88;44.28
45071;BME280;30836;48.906;9.140;2023-02-18T05:39:12;993.97;;;17.95;44.09
45071;BME280;30836;48.906;9.140;2023-02-18T05:40:13;993.95;;;18.04;43.93
45071;BME280;30836;48.906;9.140;2023-02-18T05:41:13;993.99;;;18.12;43.77
45071;BME280;30836;48.906;9.140;2023-02-18T05:42:14;993.97;;;18.18;43.58
45071;BME280;30836;48.906;9.140;2023-02-18T05:43:14;993.95;;;18.23;43.53
45071;BME280;30836;48.906;9.140;2023-02-18T05:44:15;993.99;;;18.27;43.40
45071;BME280;30836;48.906;9.140;2023-02-18T05:45:15;994.01;;;18.32;43.34
45071;BME280;30836;48.906;9.140;2023-02-18T05:46:16;994.05;;;18.30;43.49
45071;BME280;30836;48.906;9.140;2023-02-18T05:47:16;994.03;;;18.29;43.35
45071;BME280;30836;48.906;9.140;2023-02-18T05:48:17;994.01;;;18.33;43.21
45071;BME280;30836;48.906;9.140;2023-02-18T05:49:17;994.03;;;18.38;43.17
45071;BME280;30836;48.906;9.140;2023-02-18T05:50:17;994.01;;;18.42;42.99
45071;BME280;30836;48.906;9.140;2023-02-18T05:51:18;993.99;;;18.43;42.92
45071;BME280;30836;48.906;9.140;2023-02-18T05:52:18;994.01;;;18.44;42.96
45071;BME280;30836;48.906;9.140;2023-02-18T05:53:19;993.99;;;18.46;42.82
45071;BME280;30836;48.906;9.140;2023-02-18T05:54:19;993.99;;;18.47;42.78
45071;BME280;30836;48.906;9.140;2023-02-18T05:55:20;994.01;;;18.45;42.85
45071;BME280;30836;48.906;9.140;2023-02-18T05:56:20;993.99;;;18.42;42.87
45071;BME280;30836;48.906;9.140;2023-02-18T05:57:21;993.97;;;18.40;42.93
45071;BME280;30836;48.906;9.140;2023-02-18T05:58:21;993.97;;;18.34;43.12
45071;BME280;30836;48.906;9.140;2023-02-18T05:59:22;993.97;;;18.29;43.17
45071;BME280;30836;48.906;9.140;2023-02-18T06:00:22;993.93;;;18.25;43.22
45071;BME280;30836;48.906;9.140;2023-02-18T06:01:23;993.91;;;18.20;43.44
45071;BME280;30836;48.906;9.140;2023-02-18T06:02:23;993.87;;;18.12;43.53
45071;BME280;30836;48.906;9.140;2023-02-18T06:03:24;993.87;;;18.04;43.63
45071;BME280;30836;48.906;9.140;2023-02-18T06:04:24;993.87;;;17.99;43.69
45071;BME280;30836;48.906;9.140;2023-02-18T06:05:25;993.85;;;17.94;43.89
45071;BME280;30836;48.906;9.140;2023-02-18T06:06:25;993.83;;;17.91;43.95
45071;BME280;30836;48.906;9.140;2023-02-18T06:07:26;993.83;;;17.87;43.96
45071;BME280;30836;48.906;9.140;2023-02-18T06:08:26;993.89;;;17.80;44.35
45071;BME280;30836;48.906;9.140;2023-02-18T06:09:27;993.91;;;17.72;44.44
45071;BME280;30836;48.906;9.140;2023-02-18T06:10:27;993.97;;;17.69;44.41
45071;BME280;30836;48.906;9.140;2023-02-18T06:11:28;994.03;;;17.67;44.43
45071;BME280;30836;48.906;9.140;2023-02-18T06:12:28;994.05;;;17.69;44.34
45071;BME280;30836;48.906;9.140;2023-02-18T06:13:28;994.11;;;17.73;44.26
45071;BME280;30836;48.906;9.140;2023-02-18T06:14:29;994.09;;;17.78;44.18
45071;BME280;30836;48.906;9.140;2023-02-18T06:15:29;994.11;;;17.81;44.15
45071;BME280;30836;48.906;9.140;2023-02-18T06:16:30;994.09;;;17.82;44.14
45071;BME280;30836;48.906;9.140;2023-02-18T06:17:31;994.13;;;17.82;44.21
45071;BME280;30836;48.906;9.140;2023-02-18T06:18:31;994.11;;;17.78;44.36
45071;BME280;30836;48.906;9.140;2023-02-18T06:19:32;994.05;;;17.72;44.50
45071;BME280;30836;48.906;9.140;2023-02-18T06:20:32;994.05;;;17.68;44.52
45071;BME280;30836;48.906;9.140;2023-02-18T06:21:32;993.99;;;17.66;44.52